createdAt,value
2018-06-18T00:00:59.140Z,79.80
2018-06-18T00:03:27.951Z,80.80
2018-06-18T00:05:56.764Z,81.40
2018-06-18T00:08:25.571Z,82.70
2018-06-18T00:10:54.384Z,83.00
2018-06-18T00:13:23.227Z,83.60
2018-06-18T00:15:52.200Z,83.40
2018-06-18T00:18:21.008Z,85.00
2018-06-18T00:20:49.805Z,85.90
2018-06-18T00:23:18.643Z,86.10
2018-06-18T00:25:47.424Z,87.20
2018-06-18T00:28:16.263Z,87.70
2018-06-18T00:30:45.068Z,88.60
2018-06-18T00:33:13.880Z,89.10
2018-06-18T00:35:42.671Z,88.10
2018-06-18T00:38:11.484Z,88.70
2018-06-18T00:40:41.176Z,88.80
2018-06-18T00:43:10.223Z,88.30
2018-06-18T00:45:39.652Z,88.20
2018-06-18T00:48:08.462Z,87.90
2018-06-18T00:50:37.266Z,88.60
2018-06-18T00:53:06.084Z,87.30
2018-06-18T00:55:46.566Z,87.60
2018-06-18T00:58:15.407Z,87.70
2018-06-18T01:00:44.219Z,87.70
2018-06-18T01:03:13.061Z,87.40
2018-06-18T01:05:41.871Z,87.50
2018-06-18T01:08:10.691Z,87.40
2018-06-18T01:10:40.295Z,87.00
2018-06-18T01:13:09.111Z,87.00
2018-06-18T01:15:37.936Z,85.70
2018-06-18T01:18:06.771Z,84.40
2018-06-18T01:20:35.580Z,84.00
2018-06-18T01:23:22.472Z,83.10
2018-06-18T01:25:51.285Z,82.60
2018-06-18T01:30:48.716Z,80.60
2018-06-18T01:33:17.563Z,80.40
2018-06-18T01:35:46.400Z,80.50
2018-06-18T01:38:15.224Z,80.50
2018-06-18T01:40:44.039Z,80.10
2018-06-18T01:43:12.882Z,80.10
2018-06-18T01:45:41.737Z,80.10
2018-06-18T01:48:10.553Z,80.00
2018-06-18T01:50:39.412Z,80.10
2018-06-18T01:53:08.400Z,80.60
2018-06-18T01:55:37.349Z,80.60
2018-06-18T01:58:06.174Z,80.30
2018-06-18T02:00:34.993Z,79.80
2018-06-18T02:03:03.824Z,79.60
2018-06-18T02:05:32.637Z,79.50
2018-06-18T02:08:01.721Z,78.60
2018-06-18T02:10:30.658Z,78.00
2018-06-18T02:12:59.451Z,78.00
2018-06-18T02:15:28.277Z,78.10
2018-06-18T02:17:57.085Z,77.90
2018-06-18T02:20:25.922Z,77.50
2018-06-18T02:22:54.735Z,77.50
2018-06-18T02:25:23.667Z,77.30
2018-06-18T02:27:58.159Z,77.30
2018-06-18T02:31:32.381Z,77.20
2018-06-18T02:34:06.653Z,77.40
2018-06-18T02:36:40.869Z,77.20
2018-06-18T02:39:13.844Z,78.30
2018-06-18T02:41:43.433Z,77.70
2018-06-18T02:44:12.515Z,77.90
2018-06-18T02:46:41.526Z,77.80
2018-06-18T02:49:10.500Z,78.20
2018-06-18T02:51:39.319Z,78.10
2018-06-18T02:54:08.913Z,78.20
2018-06-18T02:56:49.756Z,77.90
2018-06-18T02:59:18.773Z,77.90
2018-06-18T03:01:47.604Z,77.60
2018-06-18T03:04:16.420Z,77.40
2018-06-18T03:06:45.222Z,77.70
2018-06-18T03:09:14.052Z,76.70
2018-06-18T03:11:42.902Z,76.60
2018-06-18T03:14:11.717Z,76.50
2018-06-18T03:16:40.544Z,76.70
2018-06-18T03:19:14.852Z,76.30
2018-06-18T03:21:49.292Z,76.40
2018-06-18T03:26:57.952Z,76.50
2018-06-18T03:29:29.920Z,76.60
2018-06-18T03:32:00.389Z,76.40
2018-06-18T03:36:58.753Z,76.50
2018-06-18T03:39:27.564Z,76.60
2018-06-18T03:41:56.379Z,76.70
2018-06-18T03:44:29.617Z,76.80
2018-06-18T03:47:01.609Z,76.70
2018-06-18T03:49:30.415Z,76.80
2018-06-18T03:54:27.729Z,76.80
2018-06-18T03:56:56.537Z,76.80
2018-06-18T03:59:25.577Z,76.90
2018-06-18T04:02:05.517Z,76.80
2018-06-18T04:04:46.112Z,77.10
2018-06-18T04:07:22.092Z,77.00
2018-06-18T04:09:56.474Z,76.40
2018-06-18T04:12:25.288Z,76.40
2018-06-18T04:14:54.108Z,75.60
2018-06-18T04:17:22.929Z,74.90
2018-06-18T04:19:51.747Z,73.90
2018-06-18T04:22:20.564Z,73.30
2018-06-18T04:24:49.464Z,72.70
2018-06-18T04:27:18.389Z,72.00
2018-06-18T04:29:47.229Z,71.50
2018-06-18T04:32:16.060Z,70.60
2018-06-18T04:34:47.067Z,69.90
2018-06-18T04:37:15.889Z,69.20
2018-06-18T04:39:44.719Z,68.50
2018-06-18T04:42:19.092Z,67.90
2018-06-18T04:47:27.515Z,66.40
2018-06-18T04:50:01.646Z,65.50
2018-06-18T04:52:30.671Z,66.00
2018-06-18T04:54:59.523Z,65.20
2018-06-18T04:57:28.324Z,65.10
2018-06-18T05:00:06.490Z,62.90
2018-06-18T05:02:35.384Z,60.50
2018-06-18T05:05:04.192Z,58.80
2018-06-18T05:07:33.343Z,57.80
2018-06-18T05:10:08.184Z,57.20
2018-06-18T05:12:36.996Z,55.70
2018-06-18T05:15:05.864Z,53.40
2018-06-18T05:17:34.672Z,51.70
2018-06-18T05:20:03.525Z,49.60
2018-06-18T05:22:32.419Z,47.00
2018-06-18T05:25:01.295Z,45.30
2018-06-18T05:27:32.168Z,43.40
2018-06-18T05:30:08.377Z,40.10
2018-06-18T05:32:37.205Z,38.10
2018-06-18T05:35:07.136Z,36.50
2018-06-18T05:37:42.778Z,36.00
2018-06-18T05:40:11.572Z,35.50
2018-06-18T05:42:40.439Z,34.30
2018-06-18T05:45:09.253Z,32.30
2018-06-18T05:47:38.212Z,30.40
2018-06-18T05:50:07.025Z,30.00
2018-06-18T05:52:35.865Z,30.30
2018-06-18T05:55:04.678Z,28.50
2018-06-18T05:57:33.872Z,27.40
2018-06-18T06:00:04.417Z,26.70
2018-06-18T06:02:33.253Z,25.70
2018-06-18T06:05:02.061Z,25.40
2018-06-18T06:07:30.893Z,25.10
2018-06-18T06:09:59.697Z,24.50
2018-06-18T06:12:28.507Z,24.20
2018-06-18T06:14:57.365Z,24.80
2018-06-18T06:17:26.191Z,25.90
2018-06-18T06:19:54.996Z,28.00
2018-06-18T06:22:23.832Z,29.90
2018-06-18T06:24:52.689Z,32.50
2018-06-18T06:27:21.704Z,35.10
2018-06-18T06:29:50.525Z,37.60
2018-06-18T06:32:19.790Z,40.30
2018-06-18T06:34:52.985Z,41.70
2018-06-18T06:37:21.843Z,42.10
2018-06-18T06:39:50.641Z,42.90
2018-06-18T06:42:19.499Z,43.70
2018-06-18T06:44:48.508Z,43.30
2018-06-18T06:47:17.310Z,43.40
2018-06-18T06:49:46.218Z,44.70
2018-06-18T06:52:15.004Z,45.60
2018-06-18T06:54:43.807Z,45.70
2018-06-18T06:57:12.617Z,45.50
2018-06-18T06:59:41.441Z,46.10
2018-06-18T07:02:10.245Z,45.90
2018-06-18T07:04:39.069Z,46.40
2018-06-18T07:07:07.876Z,47.10
2018-06-18T07:09:37.213Z,47.00
2018-06-18T07:12:06.025Z,46.00
2018-06-18T07:14:34.835Z,45.90
2018-06-18T07:17:03.650Z,46.70
2018-06-18T07:19:32.452Z,47.50
2018-06-18T07:22:01.257Z,48.30
2018-06-18T07:24:30.086Z,48.10
2018-06-18T07:26:58.914Z,48.20
2018-06-18T07:29:27.724Z,48.10
2018-06-18T07:31:56.555Z,47.00
2018-06-18T07:34:25.366Z,47.40
2018-06-18T07:36:54.175Z,48.00
2018-06-18T07:39:23.030Z,48.10
2018-06-18T07:41:51.872Z,48.40
2018-06-18T07:44:20.681Z,47.70
2018-06-18T07:46:49.493Z,47.90
2018-06-18T07:49:18.346Z,47.90
2018-06-18T07:51:47.163Z,48.10
2018-06-18T07:54:15.958Z,47.90
2018-06-18T07:56:44.824Z,46.70
2018-06-18T07:59:13.764Z,46.30
2018-06-18T08:01:42.585Z,45.60
2018-06-18T08:04:11.414Z,45.60
2018-06-18T08:06:40.228Z,45.30
2018-06-18T08:09:10.865Z,45.10
2018-06-18T08:11:39.688Z,45.20
2018-06-18T08:14:08.635Z,45.60
2018-06-18T08:16:37.423Z,45.30
2018-06-18T08:19:06.262Z,45.20
2018-06-18T08:21:35.220Z,45.00
2018-06-18T08:24:04.120Z,44.40
2018-06-18T08:26:33.013Z,44.10
2018-06-18T08:29:01.887Z,43.80
2018-06-18T08:31:30.886Z,44.30
2018-06-18T08:34:00.208Z,44.40
2018-06-18T08:36:28.997Z,44.30
2018-06-18T08:38:57.793Z,44.10
2018-06-18T08:41:26.592Z,41.40
2018-06-18T08:43:55.433Z,42.50
2018-06-18T08:46:24.234Z,41.70
2018-06-18T08:48:58.468Z,40.70
2018-06-18T08:51:33.701Z,40.10
2018-06-18T08:54:08.031Z,38.50
2018-06-18T08:56:42.444Z,37.70
2018-06-18T08:59:16.918Z,37.70
2018-06-18T09:01:46.442Z,37.90
2018-06-18T09:04:20.620Z,38.20
2018-06-18T09:06:49.463Z,38.60
2018-06-18T09:09:18.267Z,38.80
2018-06-18T09:11:47.076Z,38.50
2018-06-18T09:14:15.896Z,38.60
2018-06-18T09:16:44.705Z,40.10
2018-06-18T09:19:13.503Z,40.00
2018-06-18T09:21:42.325Z,38.90
2018-06-18T09:24:11.148Z,37.10
2018-06-18T09:26:39.954Z,37.50
2018-06-18T09:29:08.765Z,38.10
2018-06-18T09:31:41.904Z,38.40
2018-06-18T09:34:10.728Z,39.00
2018-06-18T09:36:39.525Z,39.80
2018-06-18T09:39:08.323Z,40.50
2018-06-18T09:41:37.134Z,40.40
2018-06-18T09:44:05.945Z,40.70
2018-06-18T09:46:34.840Z,40.40
2018-06-18T09:49:09.108Z,41.20
2018-06-18T09:51:43.496Z,42.30
2018-06-18T09:54:17.826Z,43.30
2018-06-18T09:56:51.928Z,43.90
2018-06-18T09:59:31.172Z,43.10
2018-06-18T10:01:59.968Z,43.30
2018-06-18T10:04:28.771Z,42.50
2018-06-18T10:06:57.576Z,42.10
2018-06-18T10:09:26.371Z,41.60
2018-06-18T10:11:55.189Z,40.80
2018-06-18T10:14:24.072Z,40.80
2018-06-18T10:16:52.792Z,40.60
2018-06-18T10:19:21.602Z,40.70
2018-06-18T10:21:50.398Z,40.80
2018-06-18T10:24:19.227Z,42.10
2018-06-18T10:26:48.115Z,43.10
2018-06-18T10:29:17.002Z,43.70
2018-06-18T10:31:45.799Z,44.80
2018-06-18T10:34:20.166Z,44.90
2018-06-18T10:36:54.582Z,45.40
2018-06-18T10:39:29.049Z,45.90
2018-06-18T10:42:03.306Z,46.50
2018-06-18T10:44:32.121Z,45.70
2018-06-18T10:47:00.933Z,46.20
2018-06-18T10:49:29.731Z,47.10
2018-06-18T10:51:58.549Z,47.10
2018-06-18T10:54:27.356Z,47.20
2018-06-18T10:56:56.195Z,47.20
2018-06-18T10:59:24.993Z,48.00
2018-06-18T11:01:53.783Z,48.10
2018-06-18T11:04:28.085Z,49.40
2018-06-18T11:06:56.924Z,49.30
2018-06-18T11:09:25.723Z,49.40
2018-06-18T11:11:54.521Z,49.40
2018-06-18T11:14:23.321Z,49.30
2018-06-18T11:16:57.813Z,49.50
2018-06-18T11:19:31.686Z,50.30
2018-06-18T11:22:04.909Z,49.90
2018-06-18T11:24:39.369Z,49.20
2018-06-18T11:27:08.737Z,49.00
2018-06-18T11:29:37.506Z,49.20
2018-06-18T11:32:06.527Z,49.10
2018-06-18T11:34:35.347Z,48.90
2018-06-18T11:37:04.170Z,49.10
2018-06-18T11:39:33.019Z,49.10
2018-06-18T11:42:01.903Z,49.90
2018-06-18T11:44:30.603Z,50.20
2018-06-18T11:46:59.407Z,51.20
2018-06-18T11:49:28.255Z,52.10
2018-06-18T11:51:57.151Z,52.50
2018-06-18T11:54:25.951Z,52.10
2018-06-18T11:56:54.760Z,52.50
2018-06-18T11:59:28.905Z,53.20
2018-06-18T12:02:03.192Z,53.30
2018-06-18T12:04:37.522Z,54.20
2018-06-18T12:07:11.915Z,53.70
2018-06-18T12:09:42.285Z,53.90
2018-06-18T12:12:11.064Z,52.90
2018-06-18T12:14:39.900Z,51.50
2018-06-18T12:17:08.709Z,50.30
2018-06-18T12:19:37.527Z,48.70
2018-06-18T12:22:06.342Z,48.70
2018-06-18T12:24:35.144Z,48.70
2018-06-18T12:27:04.476Z,47.70
2018-06-18T12:29:33.269Z,47.40
2018-06-18T12:32:02.093Z,47.20
2018-06-18T12:34:31.184Z,46.10
2018-06-18T12:37:00.032Z,46.10
2018-06-18T12:39:28.819Z,46.20
2018-06-18T12:42:01.712Z,46.10
2018-06-18T12:44:36.900Z,46.10
2018-06-18T12:48:09.312Z,46.10
2018-06-18T12:50:43.661Z,46.50
2018-06-18T12:53:19.070Z,46.40
2018-06-18T12:55:53.263Z,47.20
2018-06-18T12:58:23.201Z,47.90
2018-06-18T13:00:52.015Z,47.80
2018-06-18T13:03:20.856Z,47.50
2018-06-18T13:05:49.670Z,47.20
2018-06-18T13:08:18.808Z,46.90
2018-06-18T13:10:47.609Z,47.90
2018-06-18T13:15:45.051Z,48.10
2018-06-18T13:18:13.847Z,47.70
2018-06-18T13:20:42.659Z,48.00
2018-06-18T13:23:11.479Z,47.70
2018-06-18T13:25:40.275Z,47.20
2018-06-18T13:28:15.632Z,47.00
2018-06-18T13:30:44.995Z,47.10
2018-06-18T13:33:13.819Z,47.20
2018-06-18T13:35:42.642Z,47.10
2018-06-18T13:40:51.061Z,47.70
2018-06-18T13:43:25.372Z,48.20
2018-06-18T13:45:58.462Z,49.10
2018-06-18T13:48:32.663Z,49.00
2018-06-18T13:51:01.465Z,49.60
2018-06-18T13:53:30.319Z,49.60
2018-06-18T13:55:59.132Z,50.50
2018-06-18T13:58:27.936Z,50.40
2018-06-18T14:00:56.733Z,50.30
2018-06-18T14:03:25.544Z,49.60
2018-06-18T14:05:54.387Z,49.40
2018-06-18T14:08:23.235Z,49.70
2018-06-18T14:10:52.040Z,49.40
2018-06-18T14:13:20.845Z,49.20
2018-06-18T14:15:49.650Z,49.10
2018-06-18T14:18:18.505Z,49.20
2018-06-18T14:20:47.371Z,50.00
2018-06-18T14:23:16.901Z,49.30
2018-06-18T14:25:45.712Z,49.50
2018-06-18T14:28:14.524Z,49.50
2018-06-18T14:33:22.925Z,49.50
2018-06-18T14:35:57.154Z,49.40
2018-06-18T14:38:31.593Z,49.70
2018-06-18T14:41:00.435Z,48.90
2018-06-18T14:43:29.310Z,48.70
2018-06-18T14:45:58.396Z,48.90
2018-06-18T14:48:27.321Z,49.90
2018-06-18T14:50:56.097Z,49.60
2018-06-18T14:53:24.927Z,49.50
2018-06-18T14:58:28.169Z,49.30
2018-06-18T15:00:56.996Z,49.50
2018-06-18T15:03:25.812Z,50.00
2018-06-18T15:05:54.629Z,50.20
2018-06-18T15:08:23.457Z,50.20
2018-06-18T15:10:53.267Z,50.90
2018-06-18T15:13:22.267Z,51.10
2018-06-18T15:15:56.358Z,50.30
2018-06-18T15:18:25.243Z,50.40
2018-06-18T15:20:57.025Z,50.30
2018-06-18T15:26:04.264Z,48.70
2018-06-18T15:28:33.034Z,48.70
2018-06-18T15:31:01.844Z,49.60
2018-06-18T15:33:30.657Z,50.20
2018-06-18T15:35:59.565Z,50.30
2018-06-18T15:38:28.420Z,51.20
2018-06-18T15:40:57.180Z,51.40
2018-06-18T15:43:25.996Z,51.10
2018-06-18T15:45:54.800Z,51.40
2018-06-18T15:48:23.687Z,51.50
2018-06-18T15:50:52.487Z,51.50
2018-06-18T15:53:21.322Z,50.70
2018-06-18T15:55:50.128Z,49.90
2018-06-18T15:58:18.957Z,49.90
2018-06-18T16:00:47.775Z,50.20
2018-06-18T16:03:16.629Z,50.30
2018-06-18T16:05:45.420Z,50.10
2018-06-18T16:08:14.248Z,50.70
2018-06-18T16:10:43.053Z,50.90
2018-06-18T16:13:11.869Z,50.70
2018-06-18T16:15:40.671Z,50.80
2018-06-18T16:18:09.791Z,50.80
2018-06-18T16:20:38.601Z,51.00
2018-06-18T16:23:07.417Z,50.90
2018-06-18T16:25:36.418Z,51.80
2018-06-18T16:28:05.240Z,52.80
2018-06-18T16:30:34.096Z,52.20
2018-06-18T16:33:02.900Z,52.60
2018-06-18T16:35:31.711Z,52.60
2018-06-18T16:38:00.551Z,52.80
2018-06-18T16:40:29.355Z,53.00
2018-06-18T16:42:58.164Z,52.60
2018-06-18T16:45:26.996Z,52.70
2018-06-18T16:47:55.807Z,52.80
2018-06-18T16:50:24.713Z,53.10
2018-06-18T16:52:53.517Z,53.50
2018-06-18T16:55:22.419Z,53.60
2018-06-18T16:57:51.221Z,53.80
2018-06-18T17:00:20.029Z,53.60
2018-06-18T17:05:17.403Z,53.10
2018-06-18T17:07:46.216Z,53.10
2018-06-18T17:10:15.123Z,53.10
2018-06-18T17:12:43.995Z,52.60
2018-06-18T17:15:12.817Z,52.40
2018-06-18T17:17:41.618Z,52.20
2018-06-18T17:20:10.418Z,52.10
2018-06-18T17:22:39.223Z,52.20
2018-06-18T17:25:08.343Z,52.80
2018-06-18T17:27:37.154Z,53.40
2018-06-18T17:30:05.953Z,53.00
2018-06-18T17:32:34.764Z,53.30
2018-06-18T17:35:03.573Z,53.30
2018-06-18T17:37:32.388Z,53.30
2018-06-18T17:40:01.182Z,53.60
2018-06-18T17:42:29.993Z,54.10
2018-06-18T17:44:58.803Z,54.40
2018-06-18T17:47:27.621Z,55.50
2018-06-18T17:49:56.461Z,55.20
2018-06-18T17:52:25.236Z,55.40
2018-06-18T17:54:54.206Z,55.40
2018-06-18T17:57:23.013Z,55.70
2018-06-18T17:59:51.821Z,55.90
2018-06-18T18:02:20.640Z,55.70
2018-06-18T18:04:49.438Z,55.70
2018-06-18T18:07:18.254Z,55.90
2018-06-18T18:09:47.065Z,55.90
2018-06-18T18:12:15.872Z,55.90
2018-06-18T18:14:44.671Z,56.00
2018-06-18T18:17:13.480Z,56.10
2018-06-18T18:19:42.325Z,56.20
2018-06-18T18:22:11.145Z,56.10
2018-06-18T18:24:39.953Z,56.20
2018-06-18T18:27:08.873Z,56.30
2018-06-18T18:29:37.681Z,56.60
2018-06-18T18:32:06.495Z,56.60
2018-06-18T18:37:03.809Z,57.10
2018-06-18T18:39:32.620Z,57.40
2018-06-18T18:42:02.030Z,57.50
2018-06-18T18:44:30.844Z,57.70
2018-06-18T18:46:59.661Z,57.90
2018-06-18T18:49:28.473Z,58.20
2018-06-18T18:51:57.304Z,58.30
2018-06-18T18:55:45.695Z,58.30
2018-06-18T18:58:26.032Z,58.70
2018-06-18T19:00:54.840Z,58.60
2018-06-18T19:03:25.521Z,59.00
2018-06-18T19:05:55.515Z,59.10
2018-06-18T19:08:29.304Z,59.30
2018-06-18T19:11:00.188Z,59.50
2018-06-18T19:13:32.882Z,59.80
2018-06-18T19:16:01.652Z,60.50
2018-06-18T19:18:30.623Z,60.90
2018-06-18T19:21:05.148Z,61.50
2018-06-18T19:23:33.960Z,62.20
2018-06-18T19:26:02.797Z,62.60
2018-06-18T19:28:32.020Z,63.60
2018-06-18T19:31:05.203Z,63.70
2018-06-18T19:33:39.324Z,64.20
2018-06-18T19:36:08.487Z,64.50
2018-06-18T19:38:37.807Z,64.70
2018-06-18T19:41:06.608Z,64.80
2018-06-18T19:43:35.420Z,65.10
2018-06-18T19:46:04.486Z,65.30
2018-06-18T19:48:38.383Z,65.60
2018-06-18T19:51:07.470Z,65.90
2018-06-18T19:53:36.262Z,66.20
2018-06-18T19:56:05.102Z,66.70
2018-06-18T19:58:33.904Z,67.00
2018-06-18T20:01:04.481Z,67.30
2018-06-18T20:03:33.297Z,67.70
2018-06-18T20:06:02.097Z,67.80
2018-06-18T20:08:31.460Z,68.00
2018-06-18T20:11:00.257Z,68.00
2018-06-18T20:13:29.128Z,68.20
2018-06-18T20:15:57.879Z,68.20
2018-06-18T20:18:26.795Z,68.20
2018-06-18T20:20:55.616Z,68.30
2018-06-18T20:23:25.612Z,68.30
2018-06-18T20:25:59.520Z,68.30
2018-06-18T20:28:28.341Z,68.40
2018-06-18T20:30:57.389Z,68.70
2018-06-18T20:33:26.187Z,69.00
2018-06-18T20:36:00.715Z,69.20
2018-06-18T20:38:29.556Z,69.50
2018-06-18T20:40:58.368Z,69.70
2018-06-18T20:43:30.444Z,70.00
2018-06-18T20:45:59.261Z,70.40
2018-06-18T20:48:28.055Z,70.60
2018-06-18T20:50:56.855Z,70.90
2018-06-18T20:53:25.660Z,71.70
2018-06-18T20:55:54.493Z,71.80
2018-06-18T20:58:23.292Z,72.20
2018-06-18T21:00:52.104Z,72.50
2018-06-18T21:03:20.917Z,72.70
2018-06-18T21:05:49.725Z,73.10
2018-06-18T21:08:18.524Z,73.40
2018-06-18T21:10:47.333Z,73.60
2018-06-18T21:13:16.147Z,73.80
2018-06-18T21:15:44.951Z,73.80
2018-06-18T21:18:13.771Z,73.80
2018-06-18T21:20:42.568Z,74.10
2018-06-18T21:23:11.384Z,74.20
2018-06-18T21:25:40.541Z,74.30
2018-06-18T21:28:09.397Z,74.60
2018-06-18T21:30:38.173Z,74.50
2018-06-18T21:33:06.971Z,74.70
2018-06-18T21:35:35.804Z,74.90
2018-06-18T21:38:05.284Z,75.00
2018-06-18T21:40:34.099Z,74.80
2018-06-18T21:43:02.904Z,74.90
2018-06-18T21:45:31.997Z,75.10
2018-06-18T21:48:00.871Z,75.10
2018-06-18T21:50:29.754Z,75.30
2018-06-18T21:52:58.567Z,75.30
2018-06-18T21:55:27.372Z,75.30
2018-06-18T21:57:56.200Z,75.20
2018-06-18T22:00:34.142Z,75.10
2018-06-18T22:03:02.940Z,75.00
2018-06-18T22:08:00.602Z,74.20
2018-06-18T22:10:29.400Z,74.80
2018-06-18T22:12:58.199Z,74.80
2018-06-18T22:15:27.021Z,74.90
2018-06-18T22:17:55.863Z,75.00
2018-06-18T22:20:25.436Z,75.10
2018-06-18T22:22:54.296Z,75.20
2018-06-18T22:25:23.098Z,75.10
2018-06-18T22:27:51.969Z,75.20
2018-06-18T22:30:20.981Z,75.30
2018-06-18T22:32:49.880Z,75.40
2018-06-18T22:35:18.888Z,75.60
2018-06-18T22:37:47.709Z,75.90
2018-06-18T22:40:16.891Z,76.30
2018-06-18T22:42:45.684Z,76.70
2018-06-18T22:45:14.487Z,77.00
2018-06-18T22:47:43.744Z,77.40
2018-06-18T22:50:12.560Z,77.70
2018-06-18T22:52:41.388Z,77.80
2018-06-18T22:55:10.221Z,78.10
2018-06-18T22:57:39.041Z,78.30
2018-06-18T23:00:07.836Z,78.60
2018-06-18T23:02:36.639Z,79.00
2018-06-18T23:05:05.474Z,79.30
2018-06-18T23:07:34.300Z,79.60
2018-06-18T23:10:03.107Z,79.80
2018-06-18T23:12:35.109Z,80.10
2018-06-18T23:15:04.310Z,80.40
2018-06-18T23:17:33.116Z,80.50
2018-06-18T23:20:01.913Z,80.80
2018-06-18T23:22:30.721Z,80.90
2018-06-18T23:24:59.532Z,81.20
2018-06-18T23:27:28.326Z,81.30
2018-06-18T23:29:57.142Z,81.30
2018-06-18T23:32:25.968Z,81.10
2018-06-18T23:34:54.805Z,81.30
2018-06-18T23:37:23.599Z,80.80
2018-06-18T23:39:52.413Z,80.80
2018-06-18T23:42:21.212Z,81.00
2018-06-18T23:44:50.551Z,80.90
2018-06-18T23:47:19.360Z,80.80
2018-06-18T23:49:48.160Z,81.00
2018-06-18T23:52:16.964Z,81.20
2018-06-18T23:54:45.776Z,81.20
2018-06-18T23:57:14.629Z,81.20
2018-06-18T23:59:43.500Z,81.20
